AirNav  
 
 1274 users online  

26LA Dondero Island Heliport
Delcambre, Louisiana, USA

GOING TO DELCAMBRE?


FAA INFORMATION EFFECTIVE 25 MARCH 2021

Location

FAA Identifier: 26LA
Lat/Long: 29-55-27.4800N 092-00-28.1800W
29-55.458000N 092-00.469667W
29.9243000,-92.0078278
(estimated)
Elevation: 4 ft. / 1 m (estimated)
From city: 2 miles SSW of DELCAMBRE, LA
Time zone: UTC -5 (UTC -6 during Standard Time)
Zip code: 70528

Heliport Operations

Heliport use: Private use. Permission required prior to landing
Activation date: 03/2013
Control tower: no
ARTCC: HOUSTON CENTER
FSS: DE RIDDER FLIGHT SERVICE STATION
Attendance: UNATNDD
Segmented circle: no

Heliport Communications

WX AWOS-3 at IYA (5 nm NW): 118.875 (337-892-0526)
WX ASOS at ARA (9 nm NE): 133.325 (337-365-0128)
WX ASOS at LFT (17 nm N): 134.05 ((337)262-2757)

Nearby radio navigation aids

VOR radial/distance  VOR name  Freq  Var
LFTr180/16.2LAFAYETTE VORTAC109.8003E
LLAr047/24.7WHITE LAKE VOR/DME110.4004E

 
NDB name  Hdg/Dist  Freq  Var  ID
ABBEVILLE142/10.223002EBNZ -... -. --..

Heliport Services

Runway Information

Helipad H1

Dimensions: 30 x 20 ft. / 9 x 6 m
Surface: concrete
Traffic pattern: leftleft

Heliport Ownership and Management from official FAA records

Ownership: Privately-owned
Owner: GUILLERMO DONDERO
1826 SHADY LN
ERATH, LA 70533
Phone 337-654-3750
Manager: GUILLERMO DONDERO
1826 SHADY LN
ERATH, LA 70533
Phone 337-330-2449

Additional Remarks

FOR CD CTC LAFAYETTE APCH AT 337-262-2729, WHEN APCH CLSD CTC HOUSTON ARTCC AT 281-230-5622.

Instrument Procedures

There are no published instrument procedures at 26LA.

Some nearby airports with instrument procedures:

KIYA - Abbeville Chris Crusta Memorial Airport (5 nm NW)
KARA - Acadiana Regional Airport (9 nm NE)
KLFT - Lafayette Regional Airport/Paul Fournet Field (17 nm N)
KPTN - Harry P Williams Memorial Airport (37 nm E)
KOPL - St Landry Parish Airport-Ahart Field (38 nm N)
 
Loc | Ops | Rwys | IFR | FBO | Links
Com | Nav | Svcs | Stats | Notes
Aerial photo
No photo
 
Airport distance calculator
Flying to Dondero Island Heliport? Find the distance to fly.

From to 26LA

Sunrise and sunset
Times for 12-Apr-2021
 Local
(UTC-5)
 Zulu
(UTC)
Morning civil twilight06:2111:21
Sunrise06:4611:46
Sunset19:3200:32
Evening civil twilight19:5700:57

Current date and time
Zulu (UTC)  12-Apr-2021 22:16:54
Local (UTC-5)  12-Apr-2021 17:16:54
 
METAR
K0R3 
5nm NW 
118.875
No observation available
KIYA 
5nm NW 
122155Z AUTO 14011G14KT 10SM CLR 26/14 A2987 RMK AO2 T02560135
KARA 
9nm NE 
122153Z 19011KT 10SM CLR 27/18 A2987 RMK AO2 SLP115 T02670178
KLFT 
17nm N 
122153Z 17005KT 10SM CLR 28/13 A2986 RMK AO2 SLP110 T02780133
TAF
KARA 
9nm NE 
121744Z 1218/1318 14008G15KT P6SM SCT250 FM130600 VRB03KT P6SM SCT015 OVC040 FM130900 VRB03KT P6SM OVC015 FM131200 VRB05KT P6SM VCSH OVC015 TEMPO 1314/1318 5SM -SHRA BR OVC009
KLFT 
17nm N 
121744Z 1218/1318 14006KT P6SM SCT250 FM130600 VRB03KT P6SM SCT015 OVC040 FM130900 VRB03KT P6SM OVC015 FM131200 VRB05KT P6SM VCSH OVC015 TEMPO 1314/1318 5SM -SHRA BR OVC009
NOTAMs
Click for the latest NOTAMs
NOTAMs are issued by the DoD/FAA and will open in a separate window not controlled by AirNav.

 

 
 

Would you like to see your business listed on this page?

 If your business provides an interesting product or service to pilots, flight crews, aircraft, or users of the Dondero Island Heliport, you should consider listing it here.  To start the listing process, click on the button below
 
Add a business
 

Other Pages about Dondero Island Heliport

Update a link
 
Copyright © AirNav, LLC. All rights reserved. Privacy Policy  Contact